sensor_id;sensor_type;location;lat;lon;timestamp;pressure;altitude;pressure_sealevel;temperature;humidity
55517;BME280;41724;51.176;-0.708;2023-06-10T00:02:20;100808.44;;;22.87;48.43
55517;BME280;41724;51.176;-0.708;2023-06-10T00:04:47;100810.84;;;22.75;48.96
55517;BME280;41724;51.176;-0.708;2023-06-10T00:07:14;100808.33;;;23.02;48.45
55517;BME280;41724;51.176;-0.708;2023-06-10T00:09:41;100806.78;;;22.40;48.88
55517;BME280;41724;51.176;-0.708;2023-06-10T00:12:09;100807.24;;;22.75;48.58
55517;BME280;41724;51.176;-0.708;2023-06-10T00:14:38;100806.09;;;22.95;48.88
55517;BME280;41724;51.176;-0.708;2023-06-10T00:17:06;100805.35;;;22.92;48.74
55517;BME280;41724;51.176;-0.708;2023-06-10T00:19:33;100802.22;;;22.72;48.68
55517;BME280;41724;51.176;-0.708;2023-06-10T00:22:00;100798.64;;;23.01;48.41
55517;BME280;41724;51.176;-0.708;2023-06-10T00:24:27;100800.96;;;22.95;48.72
55517;BME280;41724;51.176;-0.708;2023-06-10T00:26:54;100800.14;;;22.45;48.66
55517;BME280;41724;51.176;-0.708;2023-06-10T00:29:21;100803.66;;;22.85;48.71
55517;BME280;41724;51.176;-0.708;2023-06-10T00:31:48;100802.14;;;22.59;48.71
55517;BME280;41724;51.176;-0.708;2023-06-10T00:34:15;100801.70;;;22.53;49.42
55517;BME280;41724;51.176;-0.708;2023-06-10T00:36:42;100803.88;;;22.59;49.35
55517;BME280;41724;51.176;-0.708;2023-06-10T00:39:09;100802.19;;;22.60;49.37
55517;BME280;41724;51.176;-0.708;2023-06-10T00:41:36;100801.96;;;22.58;49.38
55517;BME280;41724;51.176;-0.708;2023-06-10T00:44:03;100799.10;;;22.65;49.27
55517;BME280;41724;51.176;-0.708;2023-06-10T00:46:29;100800.42;;;22.25;49.48
55517;BME280;41724;51.176;-0.708;2023-06-10T00:48:57;100802.31;;;22.45;49.61
55517;BME280;41724;51.176;-0.708;2023-06-10T00:51:24;100798.18;;;22.71;49.73
55517;BME280;41724;51.176;-0.708;2023-06-10T00:53:52;100795.82;;;22.32;49.89
55517;BME280;41724;51.176;-0.708;2023-06-10T00:56:20;100798.25;;;22.13;50.21
55517;BME280;41724;51.176;-0.708;2023-06-10T00:58:48;100801.31;;;22.29;49.85
55517;BME280;41724;51.176;-0.708;2023-06-10T01:01:15;100799.46;;;22.11;50.16
55517;BME280;41724;51.176;-0.708;2023-06-10T01:03:42;100798.65;;;22.10;50.08
55517;BME280;41724;51.176;-0.708;2023-06-10T01:06:18;100797.33;;;22.23;49.79
55517;BME280;41724;51.176;-0.708;2023-06-10T01:08:54;100795.93;;;22.25;49.95
55517;BME280;41724;51.176;-0.708;2023-06-10T01:11:27;100797.91;;;22.16;49.97
55517;BME280;41724;51.176;-0.708;2023-06-10T01:13:56;100797.34;;;22.04;50.36
55517;BME280;41724;51.176;-0.708;2023-06-10T01:16:26;100794.91;;;22.01;50.35
55517;BME280;41724;51.176;-0.708;2023-06-10T01:18:53;100791.69;;;21.97;50.46
55517;BME280;41724;51.176;-0.708;2023-06-10T01:21:21;100790.49;;;22.02;50.17
55517;BME280;41724;51.176;-0.708;2023-06-10T01:23:48;100788.60;;;21.92;50.48
55517;BME280;41724;51.176;-0.708;2023-06-10T01:26:15;100788.87;;;22.17;50.29
55517;BME280;41724;51.176;-0.708;2023-06-10T01:28:47;100791.61;;;22.00;50.76
55517;BME280;41724;51.176;-0.708;2023-06-10T01:31:18;100788.23;;;21.53;51.01
55517;BME280;41724;51.176;-0.708;2023-06-10T01:33:52;100789.32;;;21.87;50.98
55517;BME280;41724;51.176;-0.708;2023-06-10T01:36:22;100789.78;;;21.51;51.14
55517;BME280;41724;51.176;-0.708;2023-06-10T01:38:50;100786.19;;;21.47;51.15
55517;BME280;41724;51.176;-0.708;2023-06-10T01:41:20;100781.62;;;21.39;51.08
55517;BME280;41724;51.176;-0.708;2023-06-10T01:43:48;100782.30;;;21.68;51.21
55517;BME280;41724;51.176;-0.708;2023-06-10T01:46:15;100783.29;;;21.53;51.42
55517;BME280;41724;51.176;-0.708;2023-06-10T01:48:43;100785.68;;;21.21;51.58
55517;BME280;41724;51.176;-0.708;2023-06-10T01:51:10;100784.33;;;21.53;51.52
55517;BME280;41724;51.176;-0.708;2023-06-10T01:53:37;100789.46;;;21.61;51.64
55517;BME280;41724;51.176;-0.708;2023-06-10T01:56:05;100790.34;;;21.33;51.98
55517;BME280;41724;51.176;-0.708;2023-06-10T01:58:32;100793.72;;;21.39;51.81
55517;BME280;41724;51.176;-0.708;2023-06-10T02:00:59;100794.27;;;21.46;51.43
55517;BME280;41724;51.176;-0.708;2023-06-10T02:03:26;100792.46;;;21.11;52.32
55517;BME280;41724;51.176;-0.708;2023-06-10T02:05:53;100791.78;;;21.44;52.07
55517;BME280;41724;51.176;-0.708;2023-06-10T02:08:20;100794.19;;;21.51;51.73
55517;BME280;41724;51.176;-0.708;2023-06-10T02:10:47;100794.05;;;21.19;51.95
55517;BME280;41724;51.176;-0.708;2023-06-10T02:13:14;100795.11;;;21.15;52.64
55517;BME280;41724;51.176;-0.708;2023-06-10T02:15:40;100796.77;;;21.01;52.47
55517;BME280;41724;51.176;-0.708;2023-06-10T02:18:07;100795.00;;;21.27;52.10
55517;BME280;41724;51.176;-0.708;2023-06-10T02:20:35;100793.93;;;21.12;52.39
55517;BME280;41724;51.176;-0.708;2023-06-10T02:23:01;100793.73;;;20.90;52.37
55517;BME280;41724;51.176;-0.708;2023-06-10T02:25:28;100795.39;;;20.90;51.86
55517;BME280;41724;51.176;-0.708;2023-06-10T02:27:56;100794.02;;;21.02;52.16
55517;BME280;41724;51.176;-0.708;2023-06-10T02:30:23;100790.62;;;20.90;52.54
55517;BME280;41724;51.176;-0.708;2023-06-10T02:32:51;100787.02;;;20.84;52.49
55517;BME280;41724;51.176;-0.708;2023-06-10T02:35:18;100788.23;;;20.69;52.81
55517;BME280;41724;51.176;-0.708;2023-06-10T02:37:45;100784.19;;;20.73;52.42
55517;BME280;41724;51.176;-0.708;2023-06-10T02:40:12;100788.76;;;20.66;52.69
55517;BME280;41724;51.176;-0.708;2023-06-10T02:42:39;100783.22;;;20.65;52.90
55517;BME280;41724;51.176;-0.708;2023-06-10T02:45:07;100783.57;;;20.69;52.81
55517;BME280;41724;51.176;-0.708;2023-06-10T02:47:37;100786.56;;;20.59;52.84
55517;BME280;41724;51.176;-0.708;2023-06-10T02:50:06;100786.40;;;20.53;52.97
55517;BME280;41724;51.176;-0.708;2023-06-10T02:52:33;100786.02;;;20.31;53.28
55517;BME280;41724;51.176;-0.708;2023-06-10T02:55:00;100788.98;;;20.60;53.13
55517;BME280;41724;51.176;-0.708;2023-06-10T02:57:27;100787.11;;;20.31;53.04
55517;BME280;41724;51.176;-0.708;2023-06-10T02:59:54;100782.44;;;20.21;53.33
55517;BME280;41724;51.176;-0.708;2023-06-10T03:02:21;100781.74;;;20.24;53.24
55517;BME280;41724;51.176;-0.708;2023-06-10T03:04:51;100783.37;;;20.14;53.31
55517;BME280;41724;51.176;-0.708;2023-06-10T03:07:18;100783.51;;;20.79;52.72
55517;BME280;41724;51.176;-0.708;2023-06-10T03:09:45;100793.66;;;20.31;53.39
55517;BME280;41724;51.176;-0.708;2023-06-10T03:12:12;100793.82;;;20.20;53.66
55517;BME280;41724;51.176;-0.708;2023-06-10T03:14:39;100797.00;;;20.35;53.61
55517;BME280;41724;51.176;-0.708;2023-06-10T03:17:05;100797.50;;;20.24;53.24
55517;BME280;41724;51.176;-0.708;2023-06-10T03:19:32;100797.31;;;20.29;53.82
55517;BME280;41724;51.176;-0.708;2023-06-10T03:22:10;100797.91;;;20.47;53.41
55517;BME280;41724;51.176;-0.708;2023-06-10T03:24:37;100798.27;;;20.12;53.69
55517;BME280;41724;51.176;-0.708;2023-06-10T03:27:06;100800.00;;;20.11;53.66
55517;BME280;41724;51.176;-0.708;2023-06-10T03:29:33;100803.78;;;20.49;53.21
55517;BME280;41724;51.176;-0.708;2023-06-10T03:32:00;100797.90;;;20.27;53.51
55517;BME280;41724;51.176;-0.708;2023-06-10T03:34:27;100803.19;;;20.21;53.66
55517;BME280;41724;51.176;-0.708;2023-06-10T03:36:54;100803.25;;;19.98;53.67
55517;BME280;41724;51.176;-0.708;2023-06-10T03:39:21;100799.52;;;19.77;53.16
55517;BME280;41724;51.176;-0.708;2023-06-10T03:41:49;100798.81;;;19.76;53.30
55517;BME280;41724;51.176;-0.708;2023-06-10T03:44:16;100801.46;;;20.18;53.36
55517;BME280;41724;51.176;-0.708;2023-06-10T03:46:44;100799.59;;;20.06;53.50
55517;BME280;41724;51.176;-0.708;2023-06-10T03:49:11;100798.25;;;19.96;53.64
55517;BME280;41724;51.176;-0.708;2023-06-10T03:51:38;100799.36;;;19.83;53.47
55517;BME280;41724;51.176;-0.708;2023-06-10T03:54:05;100793.89;;;20.14;53.14
55517;BME280;41724;51.176;-0.708;2023-06-10T03:56:33;100794.98;;;20.25;53.30
55517;BME280;41724;51.176;-0.708;2023-06-10T03:59:01;100797.25;;;19.73;53.39
55517;BME280;41724;51.176;-0.708;2023-06-10T04:01:28;100799.14;;;19.94;53.33
55517;BME280;41724;51.176;-0.708;2023-06-10T04:03:55;100798.17;;;19.50;53.95
55517;BME280;41724;51.176;-0.708;2023-06-10T04:06:22;100797.61;;;19.69;53.98
55517;BME280;41724;51.176;-0.708;2023-06-10T04:08:50;100795.32;;;19.48;54.36
55517;BME280;41724;51.176;-0.708;2023-06-10T04:11:16;100795.21;;;19.81;53.50
55517;BME280;41724;51.176;-0.708;2023-06-10T04:13:44;100797.80;;;19.60;54.07
55517;BME280;41724;51.176;-0.708;2023-06-10T04:16:11;100797.86;;;19.76;53.68
55517;BME280;41724;51.176;-0.708;2023-06-10T04:18:40;100797.45;;;19.56;54.00
55517;BME280;41724;51.176;-0.708;2023-06-10T04:21:07;100800.74;;;19.85;53.74
55517;BME280;41724;51.176;-0.708;2023-06-10T04:23:34;100799.62;;;19.28;54.35
55517;BME280;41724;51.176;-0.708;2023-06-10T04:26:01;100798.55;;;19.47;53.89
55517;BME280;41724;51.176;-0.708;2023-06-10T04:28:28;100802.35;;;19.64;53.63
55517;BME280;41724;51.176;-0.708;2023-06-10T04:30:55;100799.71;;;19.51;53.65
55517;BME280;41724;51.176;-0.708;2023-06-10T04:33:23;100802.72;;;19.55;54.14
55517;BME280;41724;51.176;-0.708;2023-06-10T04:35:50;100803.05;;;19.38;54.01
55517;BME280;41724;51.176;-0.708;2023-06-10T04:38:17;100801.53;;;19.64;53.95
55517;BME280;41724;51.176;-0.708;2023-06-10T04:40:45;100799.54;;;19.56;53.65
55517;BME280;41724;51.176;-0.708;2023-06-10T04:43:12;100801.16;;;19.41;53.81
55517;BME280;41724;51.176;-0.708;2023-06-10T04:45:39;100803.73;;;19.45;53.90
55517;BME280;41724;51.176;-0.708;2023-06-10T04:48:06;100797.50;;;19.36;54.06
55517;BME280;41724;51.176;-0.708;2023-06-10T04:50:33;100800.82;;;19.29;54.61
55517;BME280;41724;51.176;-0.708;2023-06-10T04:53:00;100795.19;;;19.67;54.12
55517;BME280;41724;51.176;-0.708;2023-06-10T04:55:27;100793.78;;;19.67;53.56
55517;BME280;41724;51.176;-0.708;2023-06-10T04:57:54;100796.36;;;19.70;53.62
55517;BME280;41724;51.176;-0.708;2023-06-10T05:00:21;100797.76;;;19.51;53.35
55517;BME280;41724;51.176;-0.708;2023-06-10T05:02:49;100798.40;;;19.88;53.66
55517;BME280;41724;51.176;-0.708;2023-06-10T05:05:16;100795.81;;;19.86;53.57
55517;BME280;41724;51.176;-0.708;2023-06-10T05:07:43;100793.35;;;19.78;53.38
55517;BME280;41724;51.176;-0.708;2023-06-10T05:10:10;100790.07;;;20.06;53.32
55517;BME280;41724;51.176;-0.708;2023-06-10T05:12:38;100789.52;;;19.82;52.93
55517;BME280;41724;51.176;-0.708;2023-06-10T05:15:05;100791.92;;;19.89;53.07
55517;BME280;41724;51.176;-0.708;2023-06-10T05:17:33;100794.95;;;19.84;53.27
55517;BME280;41724;51.176;-0.708;2023-06-10T05:20:00;100796.71;;;19.53;53.51
55517;BME280;41724;51.176;-0.708;2023-06-10T05:22:27;100799.61;;;20.08;53.33
55517;BME280;41724;51.176;-0.708;2023-06-10T05:24:54;100795.72;;;19.91;53.29
55517;BME280;41724;51.176;-0.708;2023-06-10T05:27:22;100797.96;;;19.93;53.80
55517;BME280;41724;51.176;-0.708;2023-06-10T05:29:49;100798.83;;;19.64;53.29
55517;BME280;41724;51.176;-0.708;2023-06-10T05:32:15;100796.03;;;19.66;53.20
55517;BME280;41724;51.176;-0.708;2023-06-10T05:34:43;100796.99;;;19.97;53.30
55517;BME280;41724;51.176;-0.708;2023-06-10T05:37:12;100799.99;;;19.90;53.18
55517;BME280;41724;51.176;-0.708;2023-06-10T05:39:39;100802.36;;;20.14;53.02
55517;BME280;41724;51.176;-0.708;2023-06-10T05:42:07;100802.67;;;19.90;52.13
55517;BME280;41724;51.176;-0.708;2023-06-10T05:44:34;100802.32;;;20.26;52.80
55517;BME280;41724;51.176;-0.708;2023-06-10T05:47:02;100809.46;;;19.96;52.51
55517;BME280;41724;51.176;-0.708;2023-06-10T05:49:29;100808.08;;;20.52;52.33
55517;BME280;41724;51.176;-0.708;2023-06-10T05:51:55;100809.81;;;20.44;52.31
55517;BME280;41724;51.176;-0.708;2023-06-10T05:54:23;100808.00;;;20.67;52.09
55517;BME280;41724;51.176;-0.708;2023-06-10T05:56:50;100802.17;;;20.07;52.44
55517;BME280;41724;51.176;-0.708;2023-06-10T05:59:17;100804.94;;;20.22;52.16
55517;BME280;41724;51.176;-0.708;2023-06-10T06:01:44;100801.53;;;20.32;52.17
55517;BME280;41724;51.176;-0.708;2023-06-10T06:04:10;100806.73;;;20.24;51.68
55517;BME280;41724;51.176;-0.708;2023-06-10T06:06:39;100801.21;;;20.39;51.84
55517;BME280;41724;51.176;-0.708;2023-06-10T06:09:06;100802.95;;;20.55;52.04
55517;BME280;41724;51.176;-0.708;2023-06-10T06:11:34;100799.69;;;20.48;52.22
55517;BME280;41724;51.176;-0.708;2023-06-10T06:14:01;100800.34;;;20.65;52.27
55517;BME280;41724;51.176;-0.708;2023-06-10T06:16:27;100801.50;;;20.67;51.81
55517;BME280;41724;51.176;-0.708;2023-06-10T06:18:55;100801.09;;;21.12;51.51
55517;BME280;41724;51.176;-0.708;2023-06-10T06:21:22;100806.65;;;21.15;50.96
55517;BME280;41724;51.176;-0.708;2023-06-10T06:23:49;100805.23;;;21.09;51.55
55517;BME280;41724;51.176;-0.708;2023-06-10T06:26:16;100797.88;;;21.27;51.42
55517;BME280;41724;51.176;-0.708;2023-06-10T06:28:43;100803.14;;;21.35;51.53
55517;BME280;41724;51.176;-0.708;2023-06-10T06:31:10;100811.29;;;20.19;53.41
55517;BME280;41724;51.176;-0.708;2023-06-10T06:33:37;100809.85;;;20.86;51.66
55517;BME280;41724;51.176;-0.708;2023-06-10T06:36:05;100812.18;;;21.09;51.80
55517;BME280;41724;51.176;-0.708;2023-06-10T06:38:32;100815.11;;;21.20;50.62
55517;BME280;41724;51.176;-0.708;2023-06-10T06:40:58;100811.91;;;21.25;51.49
55517;BME280;41724;51.176;-0.708;2023-06-10T06:43:26;100811.69;;;21.50;51.07
55517;BME280;41724;51.176;-0.708;2023-06-10T06:45:53;100807.95;;;21.54;51.01
55517;BME280;41724;51.176;-0.708;2023-06-10T06:48:20;100806.48;;;21.70;50.69
55517;BME280;41724;51.176;-0.708;2023-06-10T06:50:47;100804.77;;;21.74;50.60
55517;BME280;41724;51.176;-0.708;2023-06-10T06:53:14;100798.39;;;21.84;50.76
55517;BME280;41724;51.176;-0.708;2023-06-10T06:55:41;100801.12;;;21.73;49.92
55517;BME280;41724;51.176;-0.708;2023-06-10T06:58:08;100801.37;;;21.78;49.91
55517;BME280;41724;51.176;-0.708;2023-06-10T07:00:36;100801.65;;;21.87;48.80
55517;BME280;41724;51.176;-0.708;2023-06-10T07:03:03;100798.95;;;21.98;49.17
55517;BME280;41724;51.176;-0.708;2023-06-10T07:05:32;100796.41;;;21.71;49.37
55517;BME280;41724;51.176;-0.708;2023-06-10T07:07:59;100802.82;;;22.31;49.00
55517;BME280;41724;51.176;-0.708;2023-06-10T07:10:27;100800.00;;;22.06;48.62
55517;BME280;41724;51.176;-0.708;2023-06-10T07:12:55;100797.90;;;22.27;48.82
55517;BME280;41724;51.176;-0.708;2023-06-10T07:15:21;100799.12;;;22.26;48.87
55517;BME280;41724;51.176;-0.708;2023-06-10T07:17:49;100801.17;;;22.55;48.82
55517;BME280;41724;51.176;-0.708;2023-06-10T07:20:16;100803.58;;;22.44;49.25
55517;BME280;41724;51.176;-0.708;2023-06-10T07:22:43;100803.79;;;22.71;48.37
55517;BME280;41724;51.176;-0.708;2023-06-10T07:25:11;100801.95;;;22.75;48.40
55517;BME280;41724;51.176;-0.708;2023-06-10T07:27:38;100801.61;;;22.49;48.77
55517;BME280;41724;51.176;-0.708;2023-06-10T07:30:06;100797.51;;;23.01;48.98
55517;BME280;41724;51.176;-0.708;2023-06-10T07:32:34;100792.47;;;23.10;48.09
55517;BME280;41724;51.176;-0.708;2023-06-10T07:35:02;100796.33;;;23.10;48.25
55517;BME280;41724;51.176;-0.708;2023-06-10T07:37:28;100801.82;;;22.96;48.69
55517;BME280;41724;51.176;-0.708;2023-06-10T07:39:57;100799.73;;;22.90;48.45
55517;BME280;41724;51.176;-0.708;2023-06-10T07:42:25;100802.68;;;22.90;47.78
55517;BME280;41724;51.176;-0.708;2023-06-10T07:44:52;100807.12;;;22.73;47.70
55517;BME280;41724;51.176;-0.708;2023-06-10T07:47:19;100810.65;;;22.78;47.92
55517;BME280;41724;51.176;-0.708;2023-06-10T07:49:46;100810.58;;;22.83;48.34
55517;BME280;41724;51.176;-0.708;2023-06-10T07:52:14;100806.24;;;23.10;47.64
55517;BME280;41724;51.176;-0.708;2023-06-10T07:54:41;100809.40;;;23.29;47.40
55517;BME280;41724;51.176;-0.708;2023-06-10T07:57:08;100809.18;;;23.43;47.34
55517;BME280;41724;51.176;-0.708;2023-06-10T07:59:35;100807.79;;;23.41;47.64
55517;BME280;41724;51.176;-0.708;2023-06-10T08:02:02;100809.83;;;23.65;46.08
55517;BME280;41724;51.176;-0.708;2023-06-10T08:04:30;100810.07;;;23.67;47.00
55517;BME280;41724;51.176;-0.708;2023-06-10T08:06:58;100809.58;;;23.89;46.87
55517;BME280;41724;51.176;-0.708;2023-06-10T08:09:24;100811.23;;;24.17;46.63
55517;BME280;41724;51.176;-0.708;2023-06-10T08:11:53;100815.72;;;23.90;45.90
55517;BME280;41724;51.176;-0.708;2023-06-10T08:14:20;100813.60;;;24.29;46.87
55517;BME280;41724;51.176;-0.708;2023-06-10T08:16:48;100817.48;;;24.02;46.72
55517;BME280;41724;51.176;-0.708;2023-06-10T08:19:16;100818.75;;;24.17;46.13
55517;BME280;41724;51.176;-0.708;2023-06-10T08:21:43;100815.09;;;24.40;46.04
55517;BME280;41724;51.176;-0.708;2023-06-10T08:24:10;100810.91;;;24.38;45.81
55517;BME280;41724;51.176;-0.708;2023-06-10T08:26:39;100809.92;;;24.55;44.85
55517;BME280;41724;51.176;-0.708;2023-06-10T08:29:07;100809.28;;;24.36;45.02
55517;BME280;41724;51.176;-0.708;2023-06-10T08:31:33;100810.34;;;24.51;46.06
55517;BME280;41724;51.176;-0.708;2023-06-10T08:34:01;100807.43;;;24.39;45.22
55517;BME280;41724;51.176;-0.708;2023-06-10T08:36:28;100810.32;;;24.40;44.88
55517;BME280;41724;51.176;-0.708;2023-06-10T08:38:56;100808.66;;;24.58;44.53
55517;BME280;41724;51.176;-0.708;2023-06-10T08:41:25;100813.18;;;24.75;44.80
55517;BME280;41724;51.176;-0.708;2023-06-10T08:44:03;100816.82;;;25.15;44.69
55517;BME280;41724;51.176;-0.708;2023-06-10T08:46:36;100815.90;;;25.19;45.26
55517;BME280;41724;51.176;-0.708;2023-06-10T08:49:06;100816.11;;;24.97;44.50
55517;BME280;41724;51.176;-0.708;2023-06-10T08:51:34;100812.73;;;25.28;44.79
55517;BME280;41724;51.176;-0.708;2023-06-10T08:54:04;100814.36;;;25.18;43.71
55517;BME280;41724;51.176;-0.708;2023-06-10T08:56:33;100806.94;;;24.96;44.91
55517;BME280;41724;51.176;-0.708;2023-06-10T08:59:05;100802.31;;;25.14;44.45
55517;BME280;41724;51.176;-0.708;2023-06-10T09:01:33;100803.90;;;25.27;44.22
55517;BME280;41724;51.176;-0.708;2023-06-10T09:04:02;100806.29;;;25.41;43.53
55517;BME280;41724;51.176;-0.708;2023-06-10T09:06:32;100808.34;;;25.45;43.92
55517;BME280;41724;51.176;-0.708;2023-06-10T09:09:00;100809.90;;;25.18;44.09
55517;BME280;41724;51.176;-0.708;2023-06-10T09:11:27;100810.16;;;25.12;44.13
55517;BME280;41724;51.176;-0.708;2023-06-10T09:13:54;100813.50;;;25.55;45.03
55517;BME280;41724;51.176;-0.708;2023-06-10T09:16:21;100816.22;;;25.65;44.64
55517;BME280;41724;51.176;-0.708;2023-06-10T09:18:48;100818.44;;;25.92;42.82
55517;BME280;41724;51.176;-0.708;2023-06-10T09:21:16;100819.72;;;26.10;43.77
55517;BME280;41724;51.176;-0.708;2023-06-10T09:23:43;100820.21;;;26.14;43.91
55517;BME280;41724;51.176;-0.708;2023-06-10T09:26:11;100818.65;;;26.07;43.43
55517;BME280;41724;51.176;-0.708;2023-06-10T09:28:38;100813.33;;;26.33;43.42
55517;BME280;41724;51.176;-0.708;2023-06-10T09:31:06;100810.20;;;26.00;43.99
55517;BME280;41724;51.176;-0.708;2023-06-10T09:33:37;100808.04;;;26.62;43.24
55517;BME280;41724;51.176;-0.708;2023-06-10T09:36:05;100806.86;;;26.25;43.56
55517;BME280;41724;51.176;-0.708;2023-06-10T09:38:33;100809.84;;;26.55;42.95
55517;BME280;41724;51.176;-0.708;2023-06-10T09:41:01;100810.99;;;26.90;43.09
55517;BME280;41724;51.176;-0.708;2023-06-10T09:43:46;100814.19;;;26.74;43.44
55517;BME280;41724;51.176;-0.708;2023-06-10T09:46:16;100811.11;;;26.91;43.27
55517;BME280;41724;51.176;-0.708;2023-06-10T09:48:45;100809.37;;;27.07;42.03
55517;BME280;41724;51.176;-0.708;2023-06-10T09:51:13;100806.79;;;26.74;43.87
55517;BME280;41724;51.176;-0.708;2023-06-10T09:53:40;100804.78;;;27.02;42.68
55517;BME280;41724;51.176;-0.708;2023-06-10T09:56:07;100806.99;;;27.35;42.47
55517;BME280;41724;51.176;-0.708;2023-06-10T09:58:36;100804.16;;;27.52;42.54
55517;BME280;41724;51.176;-0.708;2023-06-10T10:01:05;100804.07;;;27.73;41.50
55517;BME280;41724;51.176;-0.708;2023-06-10T10:03:33;100802.61;;;27.86;40.78
55517;BME280;41724;51.176;-0.708;2023-06-10T10:06:00;100797.67;;;27.63;40.36
55517;BME280;41724;51.176;-0.708;2023-06-10T10:08:28;100796.14;;;27.98;41.27
55517;BME280;41724;51.176;-0.708;2023-06-10T10:10:56;100796.04;;;28.10;42.18
55517;BME280;41724;51.176;-0.708;2023-06-10T10:13:25;100793.64;;;28.26;39.47
55517;BME280;41724;51.176;-0.708;2023-06-10T10:15:59;100793.87;;;28.30;41.50
55517;BME280;41724;51.176;-0.708;2023-06-10T10:18:28;100794.74;;;28.60;39.91
55517;BME280;41724;51.176;-0.708;2023-06-10T10:20:57;100790.83;;;28.50;39.50
55517;BME280;41724;51.176;-0.708;2023-06-10T10:23:34;100790.09;;;28.45;39.00
55517;BME280;41724;51.176;-0.708;2023-06-10T10:26:10;100790.28;;;28.92;39.94
55517;BME280;41724;51.176;-0.708;2023-06-10T10:28:45;100788.04;;;28.66;40.25
55517;BME280;41724;51.176;-0.708;2023-06-10T10:31:16;100788.42;;;28.60;40.88
55517;BME280;41724;51.176;-0.708;2023-06-10T10:33:54;100784.33;;;29.00;38.27
55517;BME280;41724;51.176;-0.708;2023-06-10T10:36:24;100791.20;;;29.46;39.35
55517;BME280;41724;51.176;-0.708;2023-06-10T10:38:51;100784.23;;;29.01;37.93
55517;BME280;41724;51.176;-0.708;2023-06-10T10:41:19;100787.09;;;29.80;37.11
55517;BME280;41724;51.176;-0.708;2023-06-10T10:43:48;100784.43;;;30.17;37.55
55517;BME280;41724;51.176;-0.708;2023-06-10T10:46:17;100784.31;;;29.84;37.41
55517;BME280;41724;51.176;-0.708;2023-06-10T10:48:45;100784.38;;;29.90;38.73
55517;BME280;41724;51.176;-0.708;2023-06-10T10:51:15;100777.58;;;30.11;36.44
55517;BME280;41724;51.176;-0.708;2023-06-10T10:53:43;100777.19;;;30.02;37.04
55517;BME280;41724;51.176;-0.708;2023-06-10T10:56:14;100779.97;;;30.16;37.44
55517;BME280;41724;51.176;-0.708;2023-06-10T10:58:42;100775.62;;;30.27;37.67
55517;BME280;41724;51.176;-0.708;2023-06-10T11:01:11;100773.93;;;30.51;36.84
55517;BME280;41724;51.176;-0.708;2023-06-10T11:03:43;100767.32;;;30.85;36.48
55517;BME280;41724;51.176;-0.708;2023-06-10T11:06:13;100766.15;;;30.86;37.36
55517;BME280;41724;51.176;-0.708;2023-06-10T11:08:49;100771.34;;;30.05;38.18
55517;BME280;41724;51.176;-0.708;2023-06-10T11:11:19;100766.34;;;30.76;36.60
55517;BME280;41724;51.176;-0.708;2023-06-10T11:13:58;100759.24;;;31.84;35.03
55517;BME280;41724;51.176;-0.708;2023-06-10T11:16:31;100752.60;;;31.85;35.13
55517;BME280;41724;51.176;-0.708;2023-06-10T11:19:05;100754.38;;;32.18;31.86
55517;BME280;41724;51.176;-0.708;2023-06-10T11:21:32;100753.44;;;32.32;30.60
55517;BME280;41724;51.176;-0.708;2023-06-10T11:24:12;100754.30;;;32.56;29.12
55517;BME280;41724;51.176;-0.708;2023-06-10T11:26:44;100747.65;;;32.94;28.62
55517;BME280;41724;51.176;-0.708;2023-06-10T11:29:10;100748.80;;;32.08;30.39
55517;BME280;41724;51.176;-0.708;2023-06-10T11:31:41;100745.51;;;32.81;28.67
55517;BME280;41724;51.176;-0.708;2023-06-10T11:34:09;100741.85;;;33.44;28.65
55517;BME280;41724;51.176;-0.708;2023-06-10T11:36:38;100744.61;;;32.97;29.39
55517;BME280;41724;51.176;-0.708;2023-06-10T11:39:06;100744.34;;;32.92;29.08
55517;BME280;41724;51.176;-0.708;2023-06-10T11:41:34;100741.30;;;32.95;28.65
55517;BME280;41724;51.176;-0.708;2023-06-10T11:44:03;100740.68;;;34.06;27.87
55517;BME280;41724;51.176;-0.708;2023-06-10T11:46:30;100741.91;;;33.61;29.01
55517;BME280;41724;51.176;-0.708;2023-06-10T11:48:58;100736.65;;;33.37;28.46
55517;BME280;41724;51.176;-0.708;2023-06-10T11:51:35;100735.12;;;33.95;27.71
55517;BME280;41724;51.176;-0.708;2023-06-10T11:54:03;100738.56;;;34.07;27.77
55517;BME280;41724;51.176;-0.708;2023-06-10T11:56:31;100735.28;;;33.43;28.23
55517;BME280;41724;51.176;-0.708;2023-06-10T11:59:00;100741.00;;;33.61;28.51
55517;BME280;41724;51.176;-0.708;2023-06-10T12:01:27;100736.08;;;33.95;28.17
55517;BME280;41724;51.176;-0.708;2023-06-10T12:04:00;100730.53;;;34.45;27.68
55517;BME280;41724;51.176;-0.708;2023-06-10T12:06:27;100725.59;;;34.71;27.57
55517;BME280;41724;51.176;-0.708;2023-06-10T12:08:54;100724.17;;;34.67;26.96
55517;BME280;41724;51.176;-0.708;2023-06-10T12:11:22;100721.37;;;35.09;26.29
55517;BME280;41724;51.176;-0.708;2023-06-10T12:13:50;100722.12;;;34.26;25.43
55517;BME280;41724;51.176;-0.708;2023-06-10T12:16:17;100709.15;;;34.60;23.67
55517;BME280;41724;51.176;-0.708;2023-06-10T12:18:46;100713.15;;;34.87;24.63
55517;BME280;41724;51.176;-0.708;2023-06-10T12:21:19;100715.87;;;34.90;23.36
55517;BME280;41724;51.176;-0.708;2023-06-10T12:24:04;100706.42;;;35.21;23.78
55517;BME280;41724;51.176;-0.708;2023-06-10T12:26:36;100703.74;;;35.16;23.32
55517;BME280;41724;51.176;-0.708;2023-06-10T12:29:15;100705.21;;;35.88;23.40
55517;BME280;41724;51.176;-0.708;2023-06-10T12:32:00;100702.71;;;35.28;23.61
55517;BME280;41724;51.176;-0.708;2023-06-10T12:34:30;100700.66;;;36.08;23.66
55517;BME280;41724;51.176;-0.708;2023-06-10T12:36:57;100702.09;;;35.75;23.60
55517;BME280;41724;51.176;-0.708;2023-06-10T12:39:24;100701.05;;;36.36;22.96
55517;BME280;41724;51.176;-0.708;2023-06-10T12:41:52;100707.16;;;35.92;23.58
55517;BME280;41724;51.176;-0.708;2023-06-10T12:44:28;100706.14;;;36.55;21.99
55517;BME280;41724;51.176;-0.708;2023-06-10T12:46:56;100702.14;;;38.33;20.18